Time;durP1;ratioP1;P1;durP2;ratioP2;P2;SDS_P1;SDS_P2;PMS_P1;PMS_P2;Temp;Humidity;BMP_temperature;BMP_pressure;BME280_temperature;BME280_humidity;BME280_pressure;Samples;Min_cycle;Max_cycle;Signal;HPM_P1;HPM_P2
2022/01/17 00:00:24;;;;;;;32.40;17.07;;;;;;;4.79;79.87;102145.75;5100910;28;20214;-67
2022/01/17 00:02:53;;;;;;;35.27;17.30;;;;;;;4.71;80.16;102150.53;5102011;28;20211;-66
2022/01/17 00:05:21;;;;;;;32.50;15.60;;;;;;;4.54;80.17;102154.75;5095984;28;20202;-66
2022/01/17 00:07:49;;;;;;;33.70;15.70;;;;;;;4.59;79.93;102144.03;5097333;28;20207;-67
2022/01/17 00:10:16;;;;;;;33.90;16.37;;;;;;;4.25;81.66;102147.31;5101910;28;20212;-66
2022/01/17 00:12:46;;;;;;;35.03;16.00;;;;;;;4.45;80.84;102141.19;5103856;28;20206;-66
2022/01/17 00:15:21;;;;;;;34.63;16.93;;;;;;;4.54;80.07;102152.13;5096537;28;20225;-66
2022/01/17 00:17:53;;;;;;;32.03;15.60;;;;;;;4.53;80.21;102160.94;5098276;28;20212;-65
2022/01/17 00:20:26;;;;;;;32.70;15.37;;;;;;;4.46;80.65;102163.91;5096328;28;20221;-66
2022/01/17 00:22:54;;;;;;;30.67;15.87;;;;;;;4.31;81.00;102172.47;5102365;28;20255;-66
2022/01/17 00:25:22;;;;;;;37.50;16.47;;;;;;;4.64;80.16;102176.22;5100460;28;20225;-66
2022/01/17 00:27:51;;;;;;;32.13;15.63;;;;;;;4.95;78.74;102174.81;5093923;28;20241;-65
2022/01/17 00:30:20;;;;;;;32.43;14.97;;;;;;;4.70;79.13;102175.94;5098514;28;20229;-65
2022/01/17 00:32:48;;;;;;;32.90;16.00;;;;;;;4.88;78.45;102175.13;5106850;27;20298;-65
2022/01/17 00:35:16;;;;;;;35.47;16.33;;;;;;;4.77;79.03;102169.47;5093799;28;20253;-65
2022/01/17 00:37:44;;;;;;;29.40;14.93;;;;;;;5.08;78.01;102168.09;5106235;28;20221;-65
2022/01/17 00:40:15;;;;;;;28.13;13.87;;;;;;;4.75;79.15;102160.81;5110091;27;20206;-66
2022/01/17 00:42:43;;;;;;;28.90;14.73;;;;;;;4.32;80.26;102167.13;5097579;28;20237;-65
2022/01/17 00:45:13;;;;;;;27.30;13.93;;;;;;;4.43;80.61;102161.41;5096930;27;20591;-66
2022/01/17 00:47:43;;;;;;;32.40;14.90;;;;;;;4.61;79.66;102154.47;5103322;28;20206;-65
2022/01/17 00:50:11;;;;;;;30.67;13.57;;;;;;;4.57;79.29;102153.78;5099880;27;20685;-65
2022/01/17 00:52:39;;;;;;;26.43;14.20;;;;;;;4.63;79.68;102156.13;5102736;27;20307;-65
2022/01/17 00:55:07;;;;;;;32.87;14.73;;;;;;;4.70;79.70;102165.44;5099488;28;20207;-65
2022/01/17 00:57:35;;;;;;;31.17;13.50;;;;;;;4.52;79.81;102158.38;5106302;27;20205;-65
2022/01/17 01:00:04;;;;;;;28.77;14.07;;;;;;;4.66;79.80;102170.91;5109527;28;20220;-65
2022/01/17 01:02:33;;;;;;;32.30;15.63;;;;;;;4.47;80.38;102173.50;5099824;27;20674;-65
2022/01/17 01:05:02;;;;;;;25.60;12.70;;;;;;;4.64;79.77;102173.59;5105505;28;20639;-65
2022/01/17 01:07:30;;;;;;;27.53;14.20;;;;;;;4.59;79.86;102179.97;5102676;28;20646;-65
2022/01/17 01:10:03;;;;;;;31.20;14.53;;;;;;;4.45;80.58;102181.44;5109195;27;20209;-65
2022/01/17 01:12:31;;;;;;;27.63;14.50;;;;;;;4.66;79.40;102176.16;5095921;28;20226;-65
2022/01/17 01:14:59;;;;;;;28.20;13.80;;;;;;;4.74;79.53;102174.91;5079155;28;20249;-65
2022/01/17 01:17:35;;;;;;;30.10;13.70;;;;;;;4.71;79.36;102167.16;5082530;28;20315;-65
2022/01/17 01:20:18;;;;;;;30.70;15.10;;;;;;;4.71;79.80;102172.41;5078901;28;20216;-65
2022/01/17 01:28:17;;;;;;;30.00;14.50;;;;;;;4.51;80.58;102162.78;5076401;28;20290;-65
2022/01/17 01:30:49;;;;;;;29.73;14.60;;;;;;;4.60;80.08;102156.25;5085059;28;20626;-66
2022/01/17 01:33:24;;;;;;;32.50;15.17;;;;;;;4.42;80.59;102155.31;5087662;28;20226;-66
2022/01/17 01:35:59;;;;;;;32.23;15.70;;;;;;;4.38;80.91;102160.78;5090634;28;20751;-66
2022/01/17 01:38:28;;;;;;;29.13;14.10;;;;;;;4.54;80.74;102156.53;5091174;28;20253;-66
2022/01/17 01:40:56;;;;;;;30.37;15.13;;;;;;;4.62;80.16;102148.31;5099757;28;20226;-66
2022/01/17 01:43:23;;;;;;;34.43;15.93;;;;;;;4.62;79.55;102143.91;5085438;28;20206;-66
2022/01/17 01:45:57;;;;;;;32.07;15.67;;;;;;;4.53;80.69;102160.09;5084390;28;20206;-66
2022/01/17 01:48:24;;;;;;;30.13;15.23;;;;;;;4.58;80.39;102163.34;5078874;28;20688;-66
2022/01/17 01:50:54;;;;;;;31.23;15.13;;;;;;;4.45;81.63;102168.31;5077737;28;20229;-66
2022/01/17 01:53:22;;;;;;;28.80;14.37;;;;;;;4.66;80.16;102166.47;5080395;28;20688;-66
2022/01/17 01:55:51;;;;;;;29.53;14.53;;;;;;;4.76;79.61;102180.06;5085772;28;20210;-66
2022/01/17 01:58:21;;;;;;;34.17;16.20;;;;;;;4.61;80.25;102197.38;5085246;28;20261;-66
2022/01/17 02:00:49;;;;;;;33.27;15.07;;;;;;;4.74;80.22;102210.84;5087908;28;20294;-66
2022/01/17 02:03:18;;;;;;;29.80;15.33;;;;;;;4.92;79.16;102216.09;5086284;28;20241;-66
2022/01/17 02:05:45;;;;;;;32.20;14.77;;;;;;;5.04;78.54;102219.94;5081149;28;20672;-67
2022/01/17 02:08:16;;;;;;;30.03;14.43;;;;;;;5.03;78.42;102220.88;5089368;28;20257;-66
2022/01/17 02:10:44;;;;;;;29.37;14.10;;;;;;;5.11;78.39;102220.50;5074058;28;20207;-66
2022/01/17 02:13:12;;;;;;;30.67;14.50;;;;;;;5.34;77.12;102215.06;5084767;28;20727;-66
2022/01/17 02:15:42;;;;;;;31.90;14.23;;;;;;;5.22;77.31;102223.50;5101981;28;20210;-66
2022/01/17 02:18:12;;;;;;;24.10;12.93;;;;;;;5.00;78.31;102228.06;5094947;28;20210;-66
2022/01/17 02:20:44;;;;;;;28.73;14.43;;;;;;;5.18;77.54;102229.84;5096780;28;20218;-66
2022/01/17 02:23:14;;;;;;;29.67;14.50;;;;;;;5.16;77.53;102229.06;5099612;27;20425;-66
2022/01/17 02:25:43;;;;;;;25.50;12.83;;;;;;;5.04;78.05;102219.09;5097797;27;20230;-66
2022/01/17 02:28:11;;;;;;;28.07;13.90;;;;;;;4.59;79.76;102219.38;5096115;27;20206;-65
2022/01/17 02:30:38;;;;;;;28.93;13.97;;;;;;;4.95;78.33;102215.13;5094430;28;20218;-65
2022/01/17 02:33:06;;;;;;;25.47;13.53;;;;;;;4.99;78.85;102210.59;5097790;27;20550;-66
2022/01/17 02:35:34;;;;;;;27.63;13.80;;;;;;;4.92;78.48;102199.50;5105706;28;20216;-66
2022/01/17 02:38:03;;;;;;;25.43;12.30;;;;;;;5.28;77.12;102203.03;5100732;27;20453;-66
2022/01/17 02:40:31;;;;;;;25.43;13.93;;;;;;;4.88;78.43;102200.53;5096562;28;20297;-66
2022/01/17 02:43:03;;;;;;;24.53;12.00;;;;;;;4.80;79.09;102200.91;5090459;27;20701;-66
2022/01/17 02:45:33;;;;;;;27.30;12.47;;;;;;;5.14;77.28;102192.31;5105271;28;20213;-66
2022/01/17 02:48:04;;;;;;;24.53;12.53;;;;;;;5.35;76.84;102189.59;5101862;28;20220;-66
2022/01/17 02:50:32;;;;;;;23.67;12.53;;;;;;;5.23;77.20;102167.34;5093156;28;20301;-65
2022/01/17 02:53:00;;;;;;;24.30;12.23;;;;;;;5.26;76.97;102162.81;5101973;27;20674;-68
2022/01/17 02:55:30;;;;;;;21.87;11.63;;;;;;;5.31;77.18;102157.31;5104386;27;20302;-67
2022/01/17 02:58:00;;;;;;;25.03;11.70;;;;;;;4.92;78.68;102160.88;5097482;27;20237;-65
2022/01/17 03:00:28;;;;;;;25.53;12.20;;;;;;;4.92;78.53;102158.25;5105879;27;20212;-66
2022/01/17 03:02:56;;;;;;;19.67;10.37;;;;;;;4.68;79.17;102159.38;5103961;28;20213;-65
2022/01/17 03:05:24;;;;;;;22.57;11.07;;;;;;;4.78;78.94;102160.69;5100699;28;20288;-66
2022/01/17 03:07:52;;;;;;;21.07;10.73;;;;;;;4.92;79.04;102166.16;5100411;28;20271;-65
2022/01/17 03:10:31;;;;;;;20.70;10.73;;;;;;;4.87;78.06;102169.91;5108785;27;20217;-65
2022/01/17 03:13:04;;;;;;;22.87;11.63;;;;;;;4.90;78.21;102175.91;5093825;28;20973;-66
2022/01/17 03:15:32;;;;;;;22.77;11.70;;;;;;;4.84;78.42;102170.91;5096260;27;20313;-66
2022/01/17 03:17:59;;;;;;;21.13;10.20;;;;;;;4.75;78.84;102171.31;5099109;27;20226;-66
2022/01/17 03:20:27;;;;;;;20.90;10.13;;;;;;;4.90;78.06;102164.53;5093927;28;20207;-66
2022/01/17 03:22:55;;;;;;;24.50;11.80;;;;;;;4.86;78.01;102155.91;5099487;27;20722;-66
2022/01/17 03:25:23;;;;;;;22.50;10.93;;;;;;;5.06;77.71;102159.41;5097079;28;20221;-66
2022/01/17 03:27:51;;;;;;;22.97;11.60;;;;;;;4.93;77.72;102165.22;5097531;28;20203;-66
2022/01/17 03:30:22;;;;;;;20.83;10.40;;;;;;;4.97;78.15;102167.72;5102005;28;20620;-66
2022/01/17 03:32:50;;;;;;;21.17;10.83;;;;;;;4.70;78.64;102168.06;5095423;28;20713;-66
2022/01/17 03:35:18;;;;;;;23.53;11.10;;;;;;;5.01;78.33;102171.94;5105738;28;20242;-65
2022/01/17 03:37:46;;;;;;;22.73;11.47;;;;;;;5.19;76.74;102182.41;5098425;27;20321;-65
2022/01/17 03:40:15;;;;;;;24.30;11.13;;;;;;;5.01;77.04;102180.66;5097123;28;20288;-65
2022/01/17 03:42:43;;;;;;;22.93;11.33;;;;;;;5.09;77.74;102164.53;5092001;28;20203;-65
2022/01/17 03:45:12;;;;;;;22.17;10.60;;;;;;;4.77;78.25;102164.22;5099323;28;20236;-66
2022/01/17 03:47:42;;;;;;;21.10;11.20;;;;;;;4.84;78.58;102160.38;5101765;28;20197;-65
2022/01/17 03:50:13;;;;;;;20.37;10.77;;;;;;;4.91;78.52;102158.34;5104862;28;20304;-66
2022/01/17 03:52:41;;;;;;;23.00;10.90;;;;;;;5.18;77.11;102153.59;5098485;28;20228;-65
2022/01/17 03:55:11;;;;;;;21.27;10.50;;;;;;;5.02;77.67;102155.19;5100366;28;20221;-65
2022/01/17 03:57:42;;;;;;;20.83;10.97;;;;;;;5.06;77.72;102154.16;5102306;28;20647;-65
2022/01/17 04:00:17;;;;;;;19.90;10.13;;;;;;;5.02;78.15;102165.72;5104851;28;20270;-66
2022/01/17 04:02:46;;;;;;;21.33;10.90;;;;;;;5.14;77.17;102173.03;5097178;28;20599;-65
2022/01/17 04:05:15;;;;;;;23.40;11.03;;;;;;;5.19;77.16;102174.53;5103423;28;20748;-66
2022/01/17 04:07:42;;;;;;;21.67;11.10;;;;;;;5.13;77.11;102187.97;5101808;28;20394;-66
2022/01/17 04:10:11;;;;;;;22.10;10.83;;;;;;;4.93;77.68;102175.75;5098620;27;20241;-65
2022/01/17 04:12:39;;;;;;;24.07;12.00;;;;;;;5.04;77.50;102166.50;5101406;27;20220;-65
2022/01/17 04:15:08;;;;;;;24.27;11.67;;;;;;;5.03;78.08;102167.44;5098257;28;20197;-65
2022/01/17 04:17:35;;;;;;;22.73;11.43;;;;;;;4.76;78.21;102162.50;5099334;28;20317;-65
2022/01/17 04:20:09;;;;;;;22.90;11.03;;;;;;;4.76;79.03;102167.78;5101991;27;20234;-66
2022/01/17 04:22:50;;;;;;;20.57;10.50;;;;;;;4.82;78.54;102156.16;5100138;28;20205;-66
2022/01/17 04:25:18;;;;;;;22.17;11.60;;;;;;;4.96;78.47;102158.97;5101903;27;20563;-65
2022/01/17 04:27:47;;;;;;;24.63;12.63;;;;;;;4.73;78.51;102152.16;5105955;28;20229;-65
2022/01/17 04:30:15;;;;;;;22.70;11.50;;;;;;;4.71;78.68;102175.03;5098761;28;20198;-65
2022/01/17 04:32:45;;;;;;;20.70;10.63;;;;;;;4.79;78.53;102172.91;5102392;27;20575;-66
2022/01/17 04:35:20;;;;;;;23.30;11.33;;;;;;;4.93;77.74;102181.00;5102984;27;20722;-66
2022/01/17 04:37:50;;;;;;;21.37;10.73;;;;;;;4.79;77.86;102179.94;5100977;28;20225;-66
2022/01/17 04:40:18;;;;;;;21.83;12.10;;;;;;;4.59;78.56;102190.47;5109608;28;20210;-66
2022/01/17 04:42:48;;;;;;;23.70;11.63;;;;;;;4.78;78.34;102192.22;5097094;28;20217;-66
2022/01/17 04:45:18;;;;;;;23.77;11.57;;;;;;;4.78;78.44;102192.22;5102447;28;20574;-65
2022/01/17 04:47:48;;;;;;;21.93;11.67;;;;;;;4.88;77.83;102188.25;5102161;28;20259;-65
2022/01/17 04:50:20;;;;;;;26.87;11.93;;;;;;;4.99;76.95;102181.66;5100097;28;20614;-66
2022/01/17 04:52:48;;;;;;;23.30;10.97;;;;;;;4.65;78.39;102191.09;5105866;28;20652;-65
2022/01/17 04:55:17;;;;;;;27.20;11.87;;;;;;;4.83;78.01;102184.16;5104874;27;20671;-65
2022/01/17 04:57:46;;;;;;;26.00;12.03;;;;;;;4.96;77.38;102184.41;5098978;28;20327;-65
2022/01/17 05:00:17;;;;;;;20.53;11.20;;;;;;;5.07;76.87;102182.16;5095422;28;20207;-65
2022/01/17 05:02:45;;;;;;;25.23;12.13;;;;;;;5.08;76.99;102195.25;5100460;28;20206;-65
2022/01/17 05:05:14;;;;;;;24.43;11.60;;;;;;;4.70;77.74;102183.81;5107249;28;20616;-66
2022/01/17 05:07:43;;;;;;;23.60;11.40;;;;;;;4.78;78.26;102188.72;5106858;28;20262;-66
2022/01/17 05:10:13;;;;;;;27.43;13.17;;;;;;;4.58;79.24;102189.63;5102006;28;20210;-66
2022/01/17 05:12:41;;;;;;;24.67;12.07;;;;;;;4.90;78.14;102196.94;5099602;27;20681;-66
2022/01/17 05:15:20;;;;;;;25.10;12.10;;;;;;;4.97;77.84;102207.16;5107466;27;20296;-66
2022/01/17 05:17:59;;;;;;;23.57;11.27;;;;;;;4.95;77.31;102199.34;5103709;27;20225;-66
2022/01/17 05:20:27;;;;;;;26.90;12.00;;;;;;;4.84;78.63;102197.19;5093521;28;20217;-66
2022/01/17 05:22:56;;;;;;;23.57;10.90;;;;;;;4.88;78.71;102197.91;5103572;28;20562;-66
2022/01/17 05:25:24;;;;;;;28.20;11.90;;;;;;;5.20;76.99;102197.28;5101633;28;20218;-66
2022/01/17 05:27:52;;;;;;;22.97;11.03;;;;;;;5.20;76.71;102199.06;5101057;28;20582;-66
2022/01/17 05:30:23;;;;;;;22.73;11.20;;;;;;;5.11;77.21;102188.97;5106923;27;20751;-66
2022/01/17 05:32:52;;;;;;;26.30;11.53;;;;;;;5.01;77.08;102192.97;5099576;27;20203;-67
2022/01/17 05:35:20;;;;;;;24.47;10.87;;;;;;;5.16;76.98;102201.00;5106593;27;20726;-66
2022/01/17 05:37:49;;;;;;;21.17;10.30;;;;;;;4.89;78.36;102205.75;5094294;28;20305;-66
2022/01/17 05:40:18;;;;;;;21.20;10.20;;;;;;;4.86;78.20;102195.34;5102034;28;20627;-66
2022/01/17 05:42:46;;;;;;;22.60;10.90;;;;;;;4.74;79.18;102195.94;5097347;27;20310;-66
2022/01/17 05:45:16;;;;;;;23.43;10.33;;;;;;;4.55;79.88;102197.66;5102377;27;20290;-66
2022/01/17 05:47:45;;;;;;;25.57;11.23;;;;;;;4.89;78.92;102200.47;5101977;28;20202;-66
2022/01/17 05:50:14;;;;;;;23.07;10.60;;;;;;;4.81;79.08;102194.72;5104602;28;20285;-66
2022/01/17 05:52:42;;;;;;;25.80;11.57;;;;;;;4.73;79.53;102201.25;5101233;27;20294;-67
2022/01/17 05:55:13;;;;;;;22.60;10.97;;;;;;;4.96;79.00;102205.44;5100487;28;20836;-66
2022/01/17 05:57:43;;;;;;;24.23;11.23;;;;;;;4.93;78.83;102202.03;5105938;27;20255;-66
2022/01/17 06:00:14;;;;;;;25.23;10.70;;;;;;;5.06;78.45;102206.75;5108492;28;20207;-66
2022/01/17 06:02:42;;;;;;;22.50;10.97;;;;;;;5.10;77.96;102218.84;5106106;28;20229;-65
2022/01/17 06:05:12;;;;;;;21.40;10.07;;;;;;;5.04;77.92;102225.22;5106071;27;20300;-65
2022/01/17 06:07:40;;;;;;;21.10;10.07;;;;;;;4.98;78.06;102225.50;5099688;28;20301;-67
2022/01/17 06:10:11;;;;;;;18.90;9.67;;;;;;;5.15;77.52;102229.97;5101988;28;20210;-66
2022/01/17 06:12:42;;;;;;;23.90;11.03;;;;;;;5.15;77.45;102222.09;5093344;28;20211;-65
2022/01/17 06:15:10;;;;;;;21.17;9.93;;;;;;;4.97;77.95;102222.94;5107547;28;20202;-66
2022/01/17 06:17:38;;;;;;;19.77;9.60;;;;;;;5.30;77.29;102229.25;5098853;28;20206;-66
2022/01/17 06:20:07;;;;;;;20.63;10.17;;;;;;;5.25;77.27;102231.28;5098141;28;20222;-66
2022/01/17 06:22:34;;;;;;;23.47;10.63;;;;;;;5.12;77.38;102220.44;5093189;28;20224;-66
2022/01/17 06:25:02;;;;;;;20.50;10.10;;;;;;;5.29;77.25;102207.38;5094006;28;20230;-66
2022/01/17 06:27:31;;;;;;;21.47;10.27;;;;;;;4.99;78.64;102179.03;5102655;28;20294;-66
2022/01/17 06:30:00;;;;;;;22.87;10.67;;;;;;;5.05;78.43;102197.13;5094674;28;20305;-66
2022/01/17 06:32:28;;;;;;;24.97;10.93;;;;;;;5.14;77.98;102215.97;5101796;27;20754;-66
2022/01/17 06:34:56;;;;;;;25.37;10.03;;;;;;;4.91;78.99;102213.56;5099260;28;20214;-66
2022/01/17 06:37:24;;;;;;;23.17;10.83;;;;;;;4.69;80.11;102221.53;5093370;28;20207;-65
2022/01/17 06:39:53;;;;;;;22.37;10.73;;;;;;;4.56;80.54;102230.91;5096061;28;20695;-67
2022/01/17 06:42:21;;;;;;;25.27;11.53;;;;;;;4.91;79.93;102235.44;5100157;28;20373;-66
2022/01/17 06:44:51;;;;;;;26.53;11.50;;;;;;;4.74;79.86;102230.09;5103913;27;20834;-66
2022/01/17 06:47:21;;;;;;;21.57;10.77;;;;;;;4.58;81.24;102215.91;5100512;28;20213;-65
2022/01/17 06:49:48;;;;;;;19.80;10.10;;;;;;;4.49;81.34;102227.66;5102823;28;20302;-65
2022/01/17 06:52:16;;;;;;;23.80;11.50;;;;;;;4.55;81.08;102226.56;5098055;28;20199;-65
2022/01/17 06:54:45;;;;;;;23.90;10.93;;;;;;;4.57;81.20;102223.88;5094946;28;20206;-65
2022/01/17 06:57:12;;;;;;;23.10;11.47;;;;;;;4.68;80.85;102235.59;5095842;28;20203;-66
2022/01/17 06:59:40;;;;;;;24.53;12.03;;;;;;;4.82;79.94;102237.63;5097200;27;20674;-66
2022/01/17 07:02:08;;;;;;;24.47;10.90;;;;;;;4.72;80.22;102231.94;5104788;27;20211;-65
2022/01/17 07:04:38;;;;;;;23.50;11.10;;;;;;;4.51;81.50;102238.13;5102093;28;20205;-65
2022/01/17 07:07:05;;;;;;;23.33;11.60;;;;;;;4.73;80.50;102241.53;5102128;28;20322;-66
2022/01/17 07:09:33;;;;;;;22.50;10.90;;;;;;;4.70;80.56;102262.69;5105227;27;20735;-66
2022/01/17 07:12:01;;;;;;;24.47;10.87;;;;;;;4.59;80.90;102269.31;5104475;28;20213;-66
2022/01/17 07:14:29;;;;;;;23.37;10.97;;;;;;;4.71;81.16;102282.78;5099630;27;20790;-66
2022/01/17 07:16:57;;;;;;;21.73;10.80;;;;;;;4.57;81.93;102287.78;5107068;28;20233;-66
2022/01/17 07:19:26;;;;;;;25.73;11.50;;;;;;;4.67;81.53;102289.06;5093148;28;20242;-66
2022/01/17 07:21:55;;;;;;;22.13;10.93;;;;;;;4.93;80.05;102295.81;5100719;28;20207;-66
2022/01/17 07:24:38;;;;;;;22.00;10.27;;;;;;;4.96;79.46;102321.13;5100393;27;20221;-66
2022/01/17 07:27:07;;;;;;;22.10;10.57;;;;;;;4.89;79.93;102304.78;5100945;28;20301;-65
2022/01/17 07:29:34;;;;;;;22.27;10.90;;;;;;;4.76;79.87;102299.19;5102357;28;20205;-65
2022/01/17 07:32:03;;;;;;;25.37;11.60;;;;;;;4.73;80.71;102293.22;5095736;28;20206;-66
2022/01/17 07:34:30;;;;;;;25.00;10.97;;;;;;;4.76;80.01;102288.69;5101025;28;20297;-65
2022/01/17 07:37:00;;;;;;;20.97;10.80;;;;;;;4.77;80.46;102294.78;5099870;27;20324;-66
2022/01/17 07:39:28;;;;;;;22.93;10.83;;;;;;;4.81;80.09;102281.47;5097077;28;20221;-66
2022/01/17 07:41:56;;;;;;;23.77;11.17;;;;;;;4.79;80.02;102293.81;5101257;28;20285;-66
2022/01/17 07:44:25;;;;;;;28.97;11.80;;;;;;;4.81;79.96;102286.72;5095794;28;20612;-66
2022/01/17 07:46:55;;;;;;;20.30;10.23;;;;;;;4.66;80.47;102307.56;5095962;27;20209;-65
2022/01/17 07:49:24;;;;;;;24.70;12.13;;;;;;;4.80;80.43;102306.03;5097870;28;20713;-66
2022/01/17 07:51:56;;;;;;;25.33;11.43;;;;;;;4.83;80.61;102316.44;5095751;28;20202;-65
2022/01/17 07:54:27;;;;;;;23.17;11.30;;;;;;;4.48;81.45;102307.44;5102870;27;20198;-66
2022/01/17 07:56:55;;;;;;;21.67;10.53;;;;;;;4.69;81.21;102303.00;5097198;28;20302;-65
2022/01/17 07:59:23;;;;;;;24.10;11.10;;;;;;;4.66;81.24;102302.31;5096949;28;20223;-66
2022/01/17 08:01:51;;;;;;;22.23;10.73;;;;;;;4.64;81.41;102305.00;5102593;28;20237;-66
2022/01/17 08:04:20;;;;;;;21.20;10.17;;;;;;;4.87;80.11;102298.72;5115127;28;20207;-66
2022/01/17 08:06:49;;;;;;;25.87;10.90;;;;;;;4.88;79.94;102300.44;5107316;28;20214;-66
2022/01/17 08:09:20;;;;;;;20.77;10.03;;;;;;;4.74;80.60;102316.81;5092006;28;20223;-66
2022/01/17 08:12:07;;;;;;;20.10;9.67;;;;;;;4.65;81.16;102316.38;5090702;28;20244;-65
2022/01/17 08:14:35;;;;;;;19.33;9.97;;;;;;;4.79;81.22;102317.47;5095584;28;20325;-66
2022/01/17 08:17:04;;;;;;;23.33;10.73;;;;;;;4.80;81.07;102316.56;5105432;28;20202;-66
2022/01/17 08:19:32;;;;;;;24.07;10.03;;;;;;;4.75;81.09;102323.75;5100358;28;20258;-66
2022/01/17 08:22:00;;;;;;;21.67;10.00;;;;;;;4.64;81.82;102327.78;5102181;28;20377;-67
2022/01/17 08:24:28;;;;;;;19.20;9.83;;;;;;;4.86;81.04;102334.69;5105068;28;20731;-67
2022/01/17 08:26:56;;;;;;;20.87;10.07;;;;;;;4.87;80.26;102328.50;5099773;28;20237;-65
2022/01/17 08:29:27;;;;;;;21.10;10.23;;;;;;;4.78;81.08;102333.31;5103238;28;20202;-65
2022/01/17 08:31:55;;;;;;;21.27;10.83;;;;;;;4.96;80.26;102336.91;5120101;28;20210;-66
2022/01/17 08:34:23;;;;;;;22.40;11.37;;;;;;;4.85;80.74;102324.22;5104625;28;20301;-66
2022/01/17 08:36:51;;;;;;;24.13;11.00;;;;;;;4.93;80.07;102309.81;5105921;28;20247;-66
2022/01/17 08:39:19;;;;;;;23.27;11.07;;;;;;;4.92;80.46;102317.81;5104964;28;20301;-65
2022/01/17 08:41:47;;;;;;;21.80;9.73;;;;;;;4.72;81.31;102320.44;5099379;28;20293;-67
2022/01/17 08:44:15;;;;;;;19.20;8.97;;;;;;;4.83;81.09;102320.84;5104084;28;20210;-66
2022/01/17 08:46:45;;;;;;;20.23;11.65;;;;;;;5.03;80.40;102320.78;5098846;28;20783;-62
2022/01/17 08:49:13;;;;;;;18.83;9.63;;;;;;;5.21;80.02;102322.59;5094001;28;20244;-62
2022/01/17 08:51:46;;;;;;;21.13;10.03;;;;;;;5.20;79.78;102315.63;5106355;27;20228;-62
2022/01/17 08:54:13;;;;;;;20.13;10.57;;;;;;;5.29;79.49;102320.47;5105763;27;20206;-62
2022/01/17 08:56:41;;;;;;;19.57;9.77;;;;;;;5.21;79.19;102301.56;5107067;28;20297;-62
2022/01/17 08:59:09;;;;;;;19.53;9.50;;;;;;;5.33;78.77;102310.69;5113596;27;20210;-60
2022/01/17 09:01:36;;;;;;;20.47;9.37;;;;;;;5.35;79.00;102313.25;5110333;28;20316;-61
2022/01/17 09:04:06;;;;;;;19.67;9.73;;;;;;;5.41;79.66;102319.09;5098434;27;20435;-61
2022/01/17 09:06:34;;;;;;;20.73;9.30;;;;;;;5.38;79.44;102331.50;5100719;27;20236;-62
2022/01/17 09:09:01;;;;;;;20.53;10.20;;;;;;;5.32;79.70;102335.28;5109882;28;20300;-60
2022/01/17 09:11:29;;;;;;;20.37;9.27;;;;;;;5.37;79.53;102345.59;5103010;28;20205;-61
2022/01/17 09:13:57;;;;;;;19.00;9.07;;;;;;;5.52;78.80;102348.41;5089730;28;20273;-61
2022/01/17 09:16:25;;;;;;;19.60;9.50;;;;;;;5.61;78.39;102347.97;5089737;28;20445;-61
2022/01/17 09:18:53;;;;;;;21.10;9.93;;;;;;;5.72;78.34;102349.28;5087995;28;20207;-61
2022/01/17 09:21:22;;;;;;;18.80;9.00;;;;;;;5.78;77.98;102334.03;5087599;28;20219;-61
2022/01/17 09:23:50;;;;;;;18.23;9.50;;;;;;;5.78;77.96;102327.91;5087200;28;20299;-61
2022/01/17 09:26:21;;;;;;;19.00;9.27;;;;;;;5.95;77.60;102326.22;5078362;28;20221;-61
2022/01/17 09:28:49;;;;;;;17.93;8.97;;;;;;;5.84;77.72;102325.84;5085153;28;20256;-61
2022/01/17 09:31:17;;;;;;;18.03;8.53;;;;;;;5.84;77.85;102336.38;5083681;28;20234;-61
2022/01/17 09:33:45;;;;;;;19.50;9.43;;;;;;;6.09;76.81;102353.66;5084504;28;20302;-61
2022/01/17 09:36:13;;;;;;;16.93;8.33;;;;;;;5.97;77.40;102355.13;5091648;28;20204;-62
2022/01/17 09:38:42;;;;;;;18.13;8.23;;;;;;;5.91;77.21;102376.44;5088462;28;20700;-61
2022/01/17 09:41:10;;;;;;;18.07;9.23;;;;;;;5.79;78.03;102380.50;5084370;28;20227;-62
2022/01/17 09:43:46;;;;;;;16.30;9.13;;;;;;;5.86;78.06;102379.28;5074652;28;20208;-61
2022/01/17 09:46:15;;;;;;;17.00;9.67;;;;;;;5.88;77.38;102379.25;5081593;28;20235;-61
2022/01/17 09:48:47;;;;;;;19.80;8.73;;;;;;;5.85;77.89;102403.03;5075734;28;20283;-62
2022/01/17 09:51:20;;;;;;;19.57;9.57;;;;;;;5.84;78.35;102398.69;5084245;28;20207;-62
2022/01/17 09:53:51;;;;;;;18.07;9.13;;;;;;;5.77;78.62;102395.50;5084016;28;20453;-62
2022/01/17 09:56:21;;;;;;;18.70;9.70;;;;;;;5.84;78.80;102412.72;5083146;28;20750;-61
2022/01/17 09:58:50;;;;;;;20.33;9.77;;;;;;;5.78;78.59;102405.13;5075742;28;20246;-61
2022/01/17 10:01:18;;;;;;;15.93;8.27;;;;;;;6.06;78.18;102386.28;5078917;28;20660;-60
2022/01/17 10:03:47;;;;;;;19.90;9.67;;;;;;;5.80;78.14;102411.16;5086635;28;20209;-61
2022/01/17 10:06:15;;;;;;;17.20;9.47;;;;;;;5.95;78.29;102422.81;5085543;28;20220;-61
2022/01/17 10:08:43;;;;;;;24.40;10.47;;;;;;;5.80;78.56;102402.41;5084832;28;20209;-62
2022/01/17 10:11:15;;;;;;;22.67;11.30;;;;;;;6.15;77.34;102406.94;5087632;28;20633;-62
2022/01/17 10:13:46;;;;;;;21.30;10.40;;;;;;;6.18;77.23;102419.94;5083507;28;20286;-62
2022/01/17 10:16:15;;;;;;;23.07;11.40;;;;;;;6.23;78.53;102414.47;5114682;27;20214;-61
2022/01/17 10:18:45;;;;;;;18.33;9.87;;;;;;;6.33;77.58;102410.47;5096315;28;20260;-61
2022/01/17 10:21:26;;;;;;;22.87;10.53;;;;;;;6.06;77.94;102412.63;5104866;27;20250;-61
2022/01/17 10:24:12;;;;;;;22.47;10.87;;;;;;;6.15;77.82;102412.19;5100162;27;20202;-61
2022/01/17 10:29:54;;;;;;;18.77;9.33;;;;;;;6.02;77.79;102401.38;5103124;27;20229;-61
2022/01/17 10:35:23;;;;;;;19.03;9.80;;;;;;;6.10;78.57;102387.84;5064771;27;20222;-62
2022/01/17 10:38:04;;;;;;;18.87;9.40;;;;;;;6.20;77.73;102394.38;5100637;28;20417;-60
2022/01/17 10:40:35;;;;;;;21.53;9.27;;;;;;;6.05;78.45;102405.66;5097033;28;20200;-62
2022/01/17 10:43:05;;;;;;;18.07;9.37;;;;;;;6.04;78.15;102398.66;5106361;27;20223;-62
2022/01/17 10:45:39;;;;;;;19.37;9.70;;;;;;;6.10;78.30;102408.91;5099753;27;20254;-61
2022/01/17 10:48:08;;;;;;;21.17;10.83;;;;;;;6.18;78.03;102390.94;5101635;27;20640;-63
2022/01/17 10:50:38;;;;;;;18.53;9.40;;;;;;;6.23;77.81;102404.78;5104305;27;20433;-61
2022/01/17 10:53:08;;;;;;;20.53;9.50;;;;;;;6.32;77.49;102409.59;5098312;28;20807;-62
2022/01/17 10:55:39;;;;;;;21.33;9.87;;;;;;;6.23;77.94;102406.56;5104633;27;20329;-63
2022/01/17 10:58:13;;;;;;;23.63;10.93;;;;;;;6.30;77.71;102416.72;5101216;28;20308;-63
2022/01/17 11:00:43;;;;;;;22.57;10.73;;;;;;;6.22;77.39;102418.88;5100167;27;20225;-62
2022/01/17 11:03:13;;;;;;;22.67;11.10;;;;;;;6.41;77.28;102422.34;5105601;27;20637;-62
2022/01/17 11:05:43;;;;;;;20.50;9.80;;;;;;;6.25;77.96;102410.81;5114178;27;20232;-62
2022/01/17 11:08:12;;;;;;;20.20;9.70;;;;;;;6.34;77.79;102405.09;5095589;28;20212;-61
2022/01/17 11:10:42;;;;;;;22.93;10.77;;;;;;;6.22;78.23;102405.69;5096345;28;20212;-62
2022/01/17 11:13:13;;;;;;;22.47;11.10;;;;;;;6.27;78.36;102422.13;5092527;28;20237;-60
2022/01/17 11:15:43;;;;;;;22.87;10.70;;;;;;;6.19;78.25;102400.56;5093024;28;20288;-59
2022/01/17 11:18:17;;;;;;;21.53;10.50;;;;;;;6.27;77.91;102397.56;5097791;27;20226;-61
2022/01/17 11:20:46;;;;;;;20.23;9.37;;;;;;;6.33;77.16;102398.09;5106317;28;20253;-61
2022/01/17 11:23:14;;;;;;;21.27;10.33;;;;;;;6.33;77.04;102395.47;5095962;28;20303;-60
2022/01/17 11:25:44;;;;;;;23.80;11.33;;;;;;;6.25;77.33;102389.72;5100350;28;20231;-60
2022/01/17 11:28:15;;;;;;;20.50;10.67;;;;;;;6.21;77.38;102382.91;5096507;28;20308;-60
2022/01/17 11:30:44;;;;;;;20.87;10.50;;;;;;;6.34;77.29;102391.06;5095759;27;20235;-61
2022/01/17 11:33:12;;;;;;;20.00;10.27;;;;;;;6.17;77.67;102383.97;5089829;28;20205;-61
2022/01/17 11:35:42;;;;;;;17.93;9.50;;;;;;;6.37;77.16;102390.94;5102938;28;20334;-60
2022/01/17 11:38:12;;;;;;;19.90;10.13;;;;;;;6.18;77.43;102384.81;5097192;28;20216;-62
2022/01/17 11:40:42;;;;;;;21.40;10.23;;;;;;;6.41;77.28;102374.06;5092903;28;20216;-61